createdAt,value
2018-04-22T00:00:03.642Z,14.32
2018-04-22T00:02:32.314Z,14.25
2018-04-22T00:05:00.766Z,14.26
2018-04-22T00:07:29.188Z,14.06
2018-04-22T00:09:57.730Z,14.11
2018-04-22T00:12:26.100Z,13.74
2018-04-22T00:14:54.978Z,13.37
2018-04-22T00:17:23.511Z,13.81
2018-04-22T00:19:52.319Z,13.71
2018-04-22T00:22:20.475Z,13.21
2018-04-22T00:24:49.054Z,13.63
2018-04-22T00:27:17.600Z,13.81
2018-04-22T00:29:46.265Z,13.89
2018-04-22T00:32:14.827Z,13.82
2018-04-22T00:34:43.482Z,13.82
2018-04-22T00:37:11.884Z,13.75
2018-04-22T00:39:40.346Z,13.75
2018-04-22T00:42:08.727Z,13.65
2018-04-22T00:44:37.164Z,13.69
2018-04-22T00:47:05.957Z,13.68
2018-04-22T00:49:34.570Z,13.56
2018-04-22T00:52:03.259Z,13.61
2018-04-22T00:54:31.704Z,13.52
2018-04-22T00:57:00.009Z,13.56
2018-04-22T00:59:28.565Z,13.50
2018-04-22T01:01:56.881Z,13.51
2018-04-22T01:04:25.659Z,13.55
2018-04-22T01:06:54.138Z,13.58
2018-04-22T01:09:22.547Z,13.32
2018-04-22T01:11:51.108Z,12.52
2018-04-22T01:14:19.787Z,12.58
2018-04-22T01:16:48.236Z,12.44
2018-04-22T01:19:16.541Z,12.00
2018-04-22T01:21:45.218Z,12.54
2018-04-22T01:24:13.657Z,12.87
2018-04-22T01:26:42.014Z,12.93
2018-04-22T01:29:10.873Z,12.88
2018-04-22T01:31:39.453Z,12.66
2018-04-22T01:34:07.962Z,12.92
2018-04-22T01:36:36.641Z,12.94
2018-04-22T01:39:05.012Z,12.77
2018-04-22T01:41:33.305Z,12.83
2018-04-22T01:44:01.748Z,12.83
2018-04-22T01:46:30.107Z,12.88
2018-04-22T01:48:58.315Z,12.18
2018-04-22T01:51:26.762Z,12.54
2018-04-22T01:53:55.101Z,12.50
2018-04-22T01:56:23.540Z,12.68
2018-04-22T01:58:51.954Z,12.77
2018-04-22T02:01:20.518Z,12.83
2018-04-22T02:03:48.848Z,12.98
2018-04-22T02:06:17.292Z,13.00
2018-04-22T02:08:45.856Z,12.84
2018-04-22T02:11:14.427Z,12.95
2018-04-22T02:13:43.065Z,13.05
2018-04-22T02:16:11.601Z,12.65
2018-04-22T02:18:40.175Z,12.81
2018-04-22T02:21:08.571Z,12.78
2018-04-22T02:23:37.154Z,12.73
2018-04-22T02:26:05.929Z,12.69
2018-04-22T02:28:34.410Z,12.66
2018-04-22T02:31:02.689Z,12.70
2018-04-22T02:33:30.955Z,11.71
2018-04-22T02:35:59.915Z,11.33
2018-04-22T02:38:28.435Z,11.41
2018-04-22T02:40:57.022Z,11.01
2018-04-22T02:43:25.493Z,10.78
2018-04-22T02:45:53.863Z,11.04
2018-04-22T02:48:22.564Z,10.98
2018-04-22T02:50:51.347Z,11.44
2018-04-22T02:53:19.628Z,11.61
2018-04-22T02:55:48.029Z,11.77
2018-04-22T02:58:16.577Z,11.68
2018-04-22T03:00:44.970Z,11.76
2018-04-22T03:03:13.439Z,11.74
2018-04-22T03:05:42.324Z,11.83
2018-04-22T03:08:10.802Z,11.82
2018-04-22T03:10:39.293Z,11.75
2018-04-22T03:13:07.686Z,11.85
2018-04-22T03:15:36.653Z,11.96
2018-04-22T03:18:04.863Z,11.87
2018-04-22T03:20:33.003Z,11.85
2018-04-22T03:23:01.394Z,11.85
2018-04-22T03:25:29.779Z,11.84
2018-04-22T03:27:58.066Z,11.83
2018-04-22T03:30:26.417Z,11.95
2018-04-22T03:32:54.905Z,11.88
2018-04-22T03:35:23.507Z,11.84
2018-04-22T03:37:51.986Z,11.96
2018-04-22T03:40:20.540Z,11.93
2018-04-22T03:42:48.662Z,11.90
2018-04-22T03:45:17.194Z,11.89
2018-04-22T03:47:45.773Z,11.87
2018-04-22T03:50:14.086Z,11.33
2018-04-22T03:52:42.738Z,10.73
2018-04-22T03:55:11.219Z,10.75
2018-04-22T03:57:39.723Z,10.35
2018-04-22T04:00:08.295Z,10.38
2018-04-22T04:02:36.523Z,10.92
2018-04-22T04:05:04.854Z,11.13
2018-04-22T04:07:33.409Z,11.29
2018-04-22T04:10:01.658Z,10.99
2018-04-22T04:12:30.293Z,10.95
2018-04-22T04:14:58.619Z,11.26
2018-04-22T04:17:27.345Z,11.34
2018-04-22T04:20:07.536Z,11.48
2018-04-22T04:22:46.105Z,11.30
2018-04-22T04:28:28.963Z,12.30
2018-04-22T04:30:57.317Z,12.35
2018-04-22T04:33:25.818Z,11.78
2018-04-22T04:35:54.187Z,12.06
2018-04-22T04:38:22.357Z,12.51
2018-04-22T04:40:50.736Z,12.39
2018-04-22T04:43:19.319Z,12.63
2018-04-22T04:45:47.716Z,12.82
2018-04-22T04:48:15.960Z,13.11
2018-04-22T04:50:44.554Z,13.19
2018-04-22T04:53:12.955Z,13.18
2018-04-22T04:55:41.409Z,13.30
2018-04-22T04:58:09.717Z,13.42
2018-04-22T05:00:37.972Z,13.25
2018-04-22T05:03:06.243Z,12.90
2018-04-22T05:05:34.715Z,12.31
2018-04-22T05:08:03.058Z,12.35
2018-04-22T05:10:31.286Z,12.49
2018-04-22T05:13:00.049Z,12.88
2018-04-22T05:15:28.514Z,13.21
2018-04-22T05:17:57.015Z,12.91
2018-04-22T05:20:25.461Z,12.74
2018-04-22T05:22:53.690Z,12.78
2018-04-22T05:25:21.973Z,13.08
2018-04-22T05:27:50.386Z,13.01
2018-04-22T05:30:18.885Z,12.97
2018-04-22T05:32:47.189Z,12.63
2018-04-22T05:35:15.553Z,12.66
2018-04-22T05:37:44.054Z,12.49
2018-04-22T05:40:12.212Z,12.87
2018-04-22T05:42:41.144Z,12.88
2018-04-22T05:45:09.446Z,12.74
2018-04-22T05:47:37.988Z,13.36
2018-04-22T05:50:06.847Z,13.10
2018-04-22T05:52:35.529Z,13.43
2018-04-22T05:55:03.878Z,13.85
2018-04-22T05:57:32.390Z,13.44
2018-04-22T06:00:00.808Z,13.45
2018-04-22T06:02:29.249Z,13.40
2018-04-22T06:04:57.569Z,13.51
2018-04-22T06:07:26.283Z,13.92
2018-04-22T06:09:54.805Z,13.77
2018-04-22T06:12:23.390Z,13.38
2018-04-22T06:14:51.768Z,14.91
2018-04-22T06:17:20.384Z,14.39
2018-04-22T06:19:49.446Z,14.91
2018-04-22T06:22:18.014Z,15.04
2018-04-22T06:24:46.554Z,15.24
2018-04-22T06:27:14.774Z,16.41
2018-04-22T06:29:43.326Z,16.72
2018-04-22T06:32:11.651Z,16.82
2018-04-22T06:34:40.312Z,16.70
2018-04-22T06:37:08.626Z,18.15
2018-04-22T06:39:37.193Z,18.50
2018-04-22T06:42:05.595Z,18.45
2018-04-22T06:44:33.741Z,18.16
2018-04-22T06:47:02.422Z,17.50
2018-04-22T06:49:30.697Z,17.84
2018-04-22T06:51:58.952Z,18.95
2018-04-22T06:54:27.351Z,18.70
2018-04-22T06:56:55.712Z,19.46
2018-04-22T06:59:24.402Z,20.59
2018-04-22T07:01:52.797Z,21.17
2018-04-22T07:04:21.242Z,21.00
2018-04-22T07:06:49.658Z,20.62
2018-04-22T07:09:18.002Z,20.70
2018-04-22T07:11:46.417Z,21.28
2018-04-22T07:14:15.116Z,22.09
2018-04-22T07:16:43.461Z,23.06
2018-04-22T07:19:11.759Z,23.85
2018-04-22T07:21:40.420Z,23.28
2018-04-22T07:24:09.554Z,23.13
2018-04-22T07:26:39.026Z,23.21
2018-04-22T07:29:07.404Z,23.62
2018-04-22T07:31:35.968Z,23.65
2018-04-22T07:34:04.241Z,22.89
2018-04-22T07:36:32.947Z,23.06
2018-04-22T07:39:01.310Z,23.50
2018-04-22T07:41:29.809Z,23.82
2018-04-22T07:43:58.276Z,23.70
2018-04-22T07:46:26.389Z,24.68
2018-04-22T07:48:54.830Z,24.49
2018-04-22T07:51:22.852Z,24.21
2018-04-22T07:53:50.882Z,25.52
2018-04-22T07:56:18.912Z,25.37
2018-04-22T07:58:47.077Z,25.84
2018-04-22T08:01:15.108Z,25.51
2018-04-22T08:03:43.224Z,26.73
2018-04-22T08:06:11.631Z,27.06
2018-04-22T08:08:40.235Z,26.92
2018-04-22T08:11:08.274Z,26.05
2018-04-22T08:13:36.279Z,25.36
2018-04-22T08:16:04.203Z,25.78
2018-04-22T08:18:32.138Z,26.24
2018-04-22T08:21:00.166Z,26.70
2018-04-22T08:23:28.538Z,26.07
2018-04-22T08:25:56.838Z,26.27
2018-04-22T08:28:24.860Z,26.88
2018-04-22T08:30:53.387Z,28.26
2018-04-22T08:33:21.982Z,26.96
2018-04-22T08:35:50.288Z,27.61
2018-04-22T08:38:18.697Z,28.65
2018-04-22T08:40:47.336Z,27.82
2018-04-22T08:43:15.574Z,29.24
2018-04-22T08:45:44.143Z,30.29
2018-04-22T08:48:12.433Z,30.64
2018-04-22T08:50:40.801Z,29.70
2018-04-22T08:53:09.379Z,30.35
2018-04-22T08:55:37.767Z,28.60
2018-04-22T08:58:06.229Z,28.67
2018-04-22T09:00:34.297Z,29.01
2018-04-22T09:03:02.274Z,28.68
2018-04-22T09:05:30.582Z,29.44
2018-04-22T09:07:58.943Z,30.05
2018-04-22T09:10:27.429Z,30.55
2018-04-22T09:12:55.964Z,30.71
2018-04-22T09:15:24.301Z,30.31
2018-04-22T09:17:52.747Z,30.70
2018-04-22T09:20:20.963Z,30.51
2018-04-22T09:22:49.513Z,30.12
2018-04-22T09:25:18.090Z,30.84
2018-04-22T09:27:46.514Z,31.22
2018-04-22T09:30:15.040Z,30.61
2018-04-22T09:32:43.639Z,30.99
2018-04-22T09:35:11.917Z,30.56
2018-04-22T09:37:40.588Z,30.80
2018-04-22T09:40:09.038Z,30.25
2018-04-22T09:42:37.176Z,32.30
2018-04-22T09:45:05.725Z,31.88
2018-04-22T09:47:33.977Z,30.68
2018-04-22T09:50:02.383Z,30.80
2018-04-22T09:52:30.506Z,31.37
2018-04-22T09:54:58.927Z,31.95
2018-04-22T09:57:27.312Z,31.46
2018-04-22T09:59:55.790Z,32.19
2018-04-22T10:02:29.435Z,32.27
2018-04-22T10:04:57.968Z,31.75
2018-04-22T10:07:26.363Z,31.85
2018-04-22T10:09:55.019Z,32.28
2018-04-22T10:12:23.615Z,32.46
2018-04-22T10:14:51.887Z,33.11
2018-04-22T10:17:20.688Z,31.86
2018-04-22T10:19:49.124Z,30.46
2018-04-22T10:22:17.349Z,32.58
2018-04-22T10:24:45.701Z,32.63
2018-04-22T10:27:14.309Z,33.85
2018-04-22T10:29:42.890Z,33.43
2018-04-22T10:32:11.457Z,34.23
2018-04-22T10:34:39.982Z,33.87
2018-04-22T10:37:08.622Z,34.46
2018-04-22T10:39:37.002Z,35.23
2018-04-22T10:42:05.399Z,34.32
2018-04-22T10:44:33.857Z,34.27
2018-04-22T10:47:02.247Z,34.27
2018-04-22T10:49:30.828Z,35.12
2018-04-22T10:51:59.204Z,34.04
2018-04-22T10:54:27.594Z,34.86
2018-04-22T10:56:56.152Z,35.25
2018-04-22T10:59:24.433Z,34.51
2018-04-22T11:01:52.918Z,35.88
2018-04-22T11:04:21.496Z,35.85
2018-04-22T11:06:49.667Z,35.19
2018-04-22T11:09:17.841Z,34.25
2018-04-22T11:11:46.288Z,35.71
2018-04-22T11:14:14.811Z,35.92
2018-04-22T11:16:43.618Z,36.97
2018-04-22T11:19:12.285Z,34.68
2018-04-22T11:21:40.755Z,35.50
2018-04-22T11:24:09.541Z,35.93
2018-04-22T11:26:37.806Z,36.17
2018-04-22T11:29:06.523Z,37.54
2018-04-22T11:31:34.793Z,35.85
2018-04-22T11:34:02.977Z,33.92
2018-04-22T11:36:31.503Z,35.17
2018-04-22T11:38:59.555Z,36.07
2018-04-22T11:41:27.598Z,36.26
2018-04-22T11:43:55.557Z,35.74
2018-04-22T11:46:23.583Z,34.19
2018-04-22T11:48:51.955Z,34.60
2018-04-22T11:51:20.262Z,34.69
2018-04-22T11:53:49.054Z,35.36
2018-04-22T11:56:17.252Z,35.05
2018-04-22T11:58:45.818Z,32.60
2018-04-22T12:01:14.502Z,32.74
2018-04-22T12:03:42.945Z,32.94
2018-04-22T12:06:11.374Z,32.90
2018-04-22T12:08:39.730Z,33.89
2018-04-22T12:11:08.242Z,34.71
2018-04-22T12:13:36.704Z,33.92
2018-04-22T12:16:05.236Z,33.84
2018-04-22T12:18:33.666Z,34.79
2018-04-22T12:21:02.144Z,35.49
2018-04-22T12:23:30.345Z,35.04
2018-04-22T12:25:58.801Z,36.16
2018-04-22T12:28:27.157Z,35.56
2018-04-22T12:30:55.665Z,35.51
2018-04-22T12:33:24.106Z,35.89
2018-04-22T12:35:52.403Z,34.65
2018-04-22T12:38:20.781Z,32.34
2018-04-22T12:40:49.090Z,31.88
2018-04-22T12:43:17.644Z,32.64
2018-04-22T12:45:45.993Z,33.52
2018-04-22T12:48:14.619Z,33.81
2018-04-22T12:50:43.178Z,34.54
2018-04-22T12:53:11.664Z,33.84
2018-04-22T12:55:40.054Z,32.84
2018-04-22T12:58:08.315Z,33.44
2018-04-22T13:00:36.501Z,33.28
2018-04-22T13:03:04.614Z,32.58
2018-04-22T13:05:32.650Z,33.40
2018-04-22T13:08:00.607Z,34.46
2018-04-22T13:10:28.651Z,33.49
2018-04-22T13:12:56.638Z,32.42
2018-04-22T13:15:24.651Z,32.52
2018-04-22T13:17:52.638Z,32.23
2018-04-22T13:20:20.682Z,32.03
2018-04-22T13:22:48.713Z,32.11
2018-04-22T13:25:16.771Z,32.63
2018-04-22T13:27:44.833Z,33.38
2018-04-22T13:30:12.831Z,32.77
2018-04-22T13:32:41.114Z,32.81
2018-04-22T13:35:09.298Z,32.38
2018-04-22T13:37:37.354Z,32.10
2018-04-22T13:40:05.464Z,33.19
2018-04-22T13:42:33.539Z,31.63
2018-04-22T13:45:01.636Z,31.54
2018-04-22T13:47:29.685Z,32.39
2018-04-22T13:49:57.704Z,32.69
2018-04-22T13:52:25.655Z,33.32
2018-04-22T13:54:53.630Z,33.86
2018-04-22T13:57:21.663Z,33.91
2018-04-22T13:59:49.667Z,32.58
2018-04-22T14:02:17.637Z,32.48
2018-04-22T14:04:45.668Z,31.86
2018-04-22T14:07:13.685Z,32.73
2018-04-22T14:09:41.711Z,33.15
2018-04-22T14:12:09.840Z,32.33
2018-04-22T14:14:37.853Z,31.95
2018-04-22T14:17:06.001Z,31.17
2018-04-22T14:19:33.998Z,31.54
2018-04-22T14:22:02.007Z,31.80
2018-04-22T14:24:29.975Z,32.29
2018-04-22T14:26:58.022Z,31.18
2018-04-22T14:29:26.031Z,31.49
2018-04-22T14:31:54.045Z,30.90
2018-04-22T14:34:22.274Z,30.42
2018-04-22T14:36:50.293Z,30.19
2018-04-22T14:39:18.317Z,29.50
2018-04-22T14:41:46.297Z,29.18
2018-04-22T14:44:26.378Z,29.36
2018-04-22T14:46:54.806Z,29.33
2018-04-22T14:49:23.176Z,29.43
2018-04-22T14:51:52.809Z,29.56
2018-04-22T14:54:21.355Z,30.05
2018-04-22T14:56:49.802Z,30.25
2018-04-22T14:59:18.301Z,29.64
2018-04-22T15:01:46.635Z,29.51
2018-04-22T15:04:15.181Z,28.77
2018-04-22T15:06:43.549Z,28.85
2018-04-22T15:09:11.723Z,28.56
2018-04-22T15:11:40.328Z,28.74
2018-04-22T15:14:08.705Z,28.11
2018-04-22T15:16:36.961Z,27.82
2018-04-22T15:19:05.020Z,27.66
2018-04-22T15:21:33.023Z,27.82
2018-04-22T15:24:01.383Z,27.53
2018-04-22T15:26:29.590Z,27.42
2018-04-22T15:28:58.052Z,27.52
2018-04-22T15:31:26.617Z,27.70
2018-04-22T15:33:55.015Z,27.89
2018-04-22T15:36:23.907Z,27.76
2018-04-22T15:38:52.361Z,27.62
2018-04-22T15:41:21.014Z,27.59
2018-04-22T15:43:49.723Z,27.34
2018-04-22T15:46:18.109Z,27.17
2018-04-22T15:48:46.694Z,26.83
2018-04-22T15:51:14.995Z,27.00
2018-04-22T15:53:43.455Z,26.95
2018-04-22T15:56:11.698Z,26.83
2018-04-22T15:58:40.122Z,26.70
2018-04-22T16:01:08.582Z,26.78
2018-04-22T16:03:36.978Z,26.74
2018-04-22T16:06:05.541Z,26.34
2018-04-22T16:08:33.841Z,26.31
2018-04-22T16:11:02.209Z,26.02
2018-04-22T16:13:30.481Z,26.14
2018-04-22T16:15:58.850Z,26.24
2018-04-22T16:18:27.441Z,25.96
2018-04-22T16:20:55.731Z,25.85
2018-04-22T16:23:24.303Z,25.82
2018-04-22T16:25:52.577Z,25.59
2018-04-22T16:28:21.039Z,25.38
2018-04-22T16:30:49.551Z,25.55
2018-04-22T16:33:18.270Z,25.42
2018-04-22T16:35:47.002Z,25.48
2018-04-22T16:38:15.761Z,25.58
2018-04-22T16:40:44.078Z,25.61
2018-04-22T16:43:12.263Z,25.53
2018-04-22T16:45:40.426Z,25.25
2018-04-22T16:48:08.679Z,25.17
2018-04-22T16:50:37.153Z,25.06
2018-04-22T16:53:05.445Z,24.44
2018-04-22T16:55:33.833Z,24.46
2018-04-22T16:58:02.181Z,24.66
2018-04-22T17:00:30.604Z,24.51
2018-04-22T17:02:58.984Z,24.40
2018-04-22T17:05:27.752Z,24.51
2018-04-22T17:07:56.184Z,24.50
2018-04-22T17:10:24.822Z,24.32
2018-04-22T17:12:53.281Z,24.18
2018-04-22T17:15:21.731Z,23.97
2018-04-22T17:17:50.276Z,23.72
2018-04-22T17:20:18.820Z,23.60
2018-04-22T17:22:47.376Z,23.60
2018-04-22T17:25:15.811Z,23.53
2018-04-22T17:27:44.271Z,23.29
2018-04-22T17:30:12.818Z,22.99
2018-04-22T17:32:41.011Z,22.74
2018-04-22T17:35:09.815Z,22.78
2018-04-22T17:37:38.028Z,22.85
2018-04-22T17:40:06.601Z,22.91
2018-04-22T17:42:35.156Z,22.77
2018-04-22T17:45:03.486Z,22.68
2018-04-22T17:47:31.901Z,22.65
2018-04-22T17:50:00.254Z,22.64
2018-04-22T17:52:28.679Z,22.69
2018-04-22T17:54:56.938Z,22.61
2018-04-22T17:57:25.334Z,22.56
2018-04-22T17:59:53.590Z,22.38
2018-04-22T18:02:22.072Z,22.08
2018-04-22T18:04:50.554Z,22.09
2018-04-22T18:07:19.000Z,21.98
2018-04-22T18:09:47.378Z,21.86
2018-04-22T18:12:15.791Z,21.31
2018-04-22T18:14:44.081Z,21.54
2018-04-22T18:17:12.442Z,21.65
2018-04-22T18:19:41.092Z,21.59
2018-04-22T18:22:09.505Z,21.33
2018-04-22T18:24:37.818Z,21.20
2018-04-22T18:27:06.474Z,21.02
2018-04-22T18:29:35.204Z,21.04
2018-04-22T18:32:03.634Z,20.96
2018-04-22T18:34:31.864Z,21.07
2018-04-22T18:37:00.390Z,21.14
2018-04-22T18:39:28.588Z,20.87
2018-04-22T18:41:57.031Z,20.66
2018-04-22T18:44:25.388Z,20.17
2018-04-22T18:46:53.798Z,19.83
2018-04-22T18:49:22.002Z,20.47
2018-04-22T18:51:50.344Z,20.67
2018-04-22T18:54:18.825Z,19.89
2018-04-22T18:56:47.127Z,19.49
2018-04-22T18:59:15.482Z,19.90
2018-04-22T19:01:43.773Z,20.18
2018-04-22T19:04:12.137Z,20.41
2018-04-22T19:06:40.482Z,19.64
2018-04-22T19:09:08.907Z,20.07
2018-04-22T19:11:37.469Z,20.27
2018-04-22T19:14:05.875Z,19.80
2018-04-22T19:16:34.236Z,20.08
2018-04-22T19:19:02.541Z,20.29
2018-04-22T19:21:30.887Z,20.25
2018-04-22T19:23:59.476Z,20.29
2018-04-22T19:26:27.769Z,19.77
2018-04-22T19:28:56.129Z,19.77
2018-04-22T19:31:24.539Z,19.64
2018-04-22T19:33:52.977Z,19.75
2018-04-22T19:36:21.338Z,19.31
2018-04-22T19:38:49.849Z,19.02
2018-04-22T19:41:18.217Z,19.07
2018-04-22T19:43:46.705Z,19.21
2018-04-22T19:46:15.212Z,19.47
2018-04-22T19:48:43.927Z,19.35
2018-04-22T19:51:12.265Z,19.36
2018-04-22T19:53:40.817Z,19.49
2018-04-22T19:56:09.133Z,19.09
2018-04-22T19:58:37.574Z,19.37
2018-04-22T20:01:05.782Z,18.52
2018-04-22T20:03:34.253Z,18.17
2018-04-22T20:06:02.748Z,18.46
2018-04-22T20:08:31.302Z,18.27
2018-04-22T20:10:59.849Z,18.68
2018-04-22T20:13:28.476Z,18.53
2018-04-22T20:15:56.845Z,18.16
2018-04-22T20:18:25.317Z,18.16
2018-04-22T20:20:53.526Z,17.97
2018-04-22T20:23:22.073Z,17.81
2018-04-22T20:25:50.543Z,17.69
2018-04-22T20:28:18.845Z,17.97
2018-04-22T20:30:47.099Z,17.81
2018-04-22T20:33:15.294Z,18.26
2018-04-22T20:35:43.548Z,18.11
2018-04-22T20:38:11.950Z,17.74
2018-04-22T20:40:40.513Z,17.98
2018-04-22T20:43:08.759Z,18.01
2018-04-22T20:45:37.490Z,18.12
2018-04-22T20:48:05.746Z,18.21
2018-04-22T20:50:34.143Z,18.70
2018-04-22T20:53:02.733Z,18.62
2018-04-22T20:55:31.195Z,18.32
2018-04-22T20:57:59.741Z,18.59
2018-04-22T21:00:28.149Z,18.70
2018-04-22T21:02:56.448Z,18.72
2018-04-22T21:05:24.606Z,18.69
2018-04-22T21:07:52.896Z,18.42
2018-04-22T21:10:21.355Z,18.60
2018-04-22T21:12:49.937Z,18.63
2018-04-22T21:15:18.537Z,18.69
2018-04-22T21:17:47.001Z,18.56
2018-04-22T21:20:16.219Z,18.56
2018-04-22T21:22:44.667Z,18.47
2018-04-22T21:25:12.988Z,18.47
2018-04-22T21:27:41.642Z,18.50
2018-04-22T21:30:10.013Z,18.54
2018-04-22T21:32:38.314Z,18.37
2018-04-22T21:35:06.698Z,17.82
2018-04-22T21:37:34.957Z,18.19
2018-04-22T21:40:03.221Z,18.35
2018-04-22T21:42:31.555Z,18.32
2018-04-22T21:44:59.983Z,18.33
2018-04-22T21:47:28.671Z,17.97
2018-04-22T21:49:57.212Z,18.14
2018-04-22T21:52:25.638Z,18.22
2018-04-22T21:54:54.005Z,18.25
2018-04-22T21:57:22.346Z,18.14
2018-04-22T21:59:50.957Z,18.12
2018-04-22T22:02:19.338Z,18.18
2018-04-22T22:04:47.836Z,18.07
2018-04-22T22:07:16.198Z,18.14
2018-04-22T22:09:44.462Z,18.04
2018-04-22T22:12:12.870Z,17.93
2018-04-22T22:14:41.042Z,17.91
2018-04-22T22:17:09.506Z,17.83
2018-04-22T22:19:37.721Z,17.82
2018-04-22T22:22:06.274Z,17.83
2018-04-22T22:24:34.956Z,17.83
2018-04-22T22:27:03.600Z,17.72
2018-04-22T22:29:31.798Z,17.38
2018-04-22T22:32:00.287Z,17.52
2018-04-22T22:34:28.683Z,17.50
2018-04-22T22:36:57.038Z,17.46
2018-04-22T22:39:25.754Z,17.48
2018-04-22T22:41:54.237Z,17.46
2018-04-22T22:44:22.890Z,17.15
2018-04-22T22:46:51.220Z,17.06
2018-04-22T22:49:19.883Z,17.21
2018-04-22T22:51:48.223Z,17.12
2018-04-22T22:54:16.532Z,17.17
2018-04-22T22:56:44.986Z,17.11
2018-04-22T22:59:13.568Z,17.14
2018-04-22T23:01:41.967Z,16.39
2018-04-22T23:04:10.323Z,15.96
2018-04-22T23:06:38.630Z,16.25
2018-04-22T23:09:06.968Z,15.95
2018-04-22T23:11:35.442Z,16.42
2018-04-22T23:14:03.958Z,16.71
2018-04-22T23:16:32.417Z,16.90
2018-04-22T23:19:01.103Z,17.02
2018-04-22T23:21:29.389Z,17.05
2018-04-22T23:23:57.884Z,16.98
2018-04-22T23:26:26.348Z,17.01
2018-04-22T23:28:54.846Z,16.92
2018-04-22T23:31:23.298Z,16.46
2018-04-22T23:33:51.679Z,16.57
2018-04-22T23:36:19.969Z,16.71
2018-04-22T23:38:48.225Z,16.81
2018-04-22T23:41:16.734Z,16.00
2018-04-22T23:43:45.305Z,16.30
2018-04-22T23:46:13.553Z,16.57
2018-04-22T23:48:41.829Z,16.55
2018-04-22T23:51:10.429Z,16.35
2018-04-22T23:53:38.509Z,16.46
2018-04-22T23:56:06.837Z,16.59
2018-04-22T23:58:35.269Z,16.50
